»·PEaware :: N4657 KSNA-KSBA

N4657 :: KSNA-KSBA

FLIGHT INFORMATION

Flight Status: Arrived
Operator: Privately registered:
United States
More flights under this callsign
Pilot: Daniel P. (20187)
Aircraft: PILATUS PC-12 EAGLE
(PC12)
More flights by this aircraft type
Origin: KSNA John Wayne-Orange Co
United States
Destination: KSBA Santa Barbara Mun
United States
More flights between these airports :: More routes between these airports
Route: +SXC V208 VTU VTU282 KWANG
File this flight plan on PilotEdge
Remarks: TEC route CSTP22
Altitude:
(Current/Filed)
6,000ft
Speed:
(Current/Filed)
190kts
Departed: 14-Sep-18 10:53 AM
Arrived: 14-Sep-18 11:37 AM
Distance/Time
Traveled:
108nm/0:44
Distance/Time
To Go:
Arrived

Flight Plot

Page will automatically refresh every two minutes.


Map Options




Map Legend


Flown Route
Filed Route
Departure Airport
Arrival Airport
Navaid (VOR, NDB)
Fix

Horizontal Profiles

Position Reports

Time Latitude Longitude Heading Altitude Ground
Speed
14-Sep-18 10:19 33.674143 -117.872014 117 60ft 0kts
14-Sep-18 10:20 33.674143 -117.872014 117 60ft 0kts
14-Sep-18 10:21 33.674143 -117.872014 117 60ft 0kts
14-Sep-18 10:22 33.674143 -117.872014 117 60ft 0kts
14-Sep-18 10:23 33.674143 -117.872014 117 60ft 0kts
14-Sep-18 10:24 33.674143 -117.872014 117 60ft 0kts
14-Sep-18 10:25 33.674143 -117.872014 117 60ft 0kts
14-Sep-18 10:26 33.674143 -117.872014 117 60ft 0kts
14-Sep-18 10:27 33.674143 -117.872014 117 60ft 0kts
14-Sep-18 10:28 33.674143 -117.872014 117 60ft 0kts
14-Sep-18 10:29 33.674143 -117.872014 117 60ft 0kts
14-Sep-18 10:30 33.674143 -117.872014 117 60ft 0kts
14-Sep-18 10:31 33.674143 -117.872014 117 60ft 0kts
14-Sep-18 10:32 33.674143 -117.872014 117 60ft 0kts
14-Sep-18 10:33 33.674143 -117.872014 117 60ft 0kts
14-Sep-18 10:34 33.674143 -117.872014 117 60ft 0kts
14-Sep-18 10:35 33.674143 -117.872014 117 60ft 0kts
14-Sep-18 10:36 33.674143 -117.872014 117 60ft 0kts
14-Sep-18 10:37 33.674143 -117.872014 117 60ft 0kts
14-Sep-18 10:38 33.674143 -117.872014 117 60ft 0kts
14-Sep-18 10:39 33.674143 -117.872014 117 60ft 0kts
14-Sep-18 10:40 33.674143 -117.872014 117 60ft 0kts
14-Sep-18 10:41 33.674143 -117.872014 117 60ft 0kts
14-Sep-18 10:42 33.674143 -117.872014 117 60ft 0kts
14-Sep-18 10:43 33.674143 -117.872014 117 60ft 0kts
14-Sep-18 10:44 33.674143 -117.872014 117 60ft 0kts
14-Sep-18 10:45 33.674143 -117.872014 117 60ft 0kts
14-Sep-18 10:46 33.674143 -117.872014 117 60ft 0kts
14-Sep-18 10:47 33.674143 -117.872014 117 60ft 0kts
14-Sep-18 10:48 33.674143 -117.872014 117 60ft 0kts
14-Sep-18 10:49 33.674573 -117.871022 30 60ft 4kts
14-Sep-18 10:50 33.677479 -117.869200 26 60ft 15kts
14-Sep-18 10:51 33.680264 -117.867619 26 60ft 10kts
14-Sep-18 10:52 33.681203 -117.866426 114 60ft 0kts
14-Sep-18 10:53 33.681203 -117.866426 114 60ft 0kts
14-Sep-18 10:54 33.681203 -117.866426 114 60ft 0kts
14-Sep-18 10:55 33.676783 -117.868180 207 60ft 100kts
14-Sep-18 10:56 33.642065 -117.879500 186 1490ft 165kts
14-Sep-18 10:57 33.591739 -117.887373 186 3009ft 195kts
14-Sep-18 10:58 33.541700 -117.913033 211 4498ft 204kts
14-Sep-18 10:59 33.493931 -117.950057 211 5993ft 201kts
14-Sep-18 11:00 33.448695 -117.985780 211 7481ft 192kts
14-Sep-18 11:01 33.401129 -118.022244 211 8017ft 220kts
14-Sep-18 11:02 33.347696 -118.060996 213 8041ft 227kts
14-Sep-18 11:03 33.347107 -118.129455 281 8006ft 230kts
14-Sep-18 11:04 33.356473 -118.205047 275 7972ft 229kts
14-Sep-18 11:05 33.363128 -118.280625 274 7983ft 228kts
14-Sep-18 11:06 33.369527 -118.356214 274 7992ft 228kts
14-Sep-18 11:07 33.381185 -118.430101 306 7993ft 232kts
14-Sep-18 11:08 33.423103 -118.488722 308 7992ft 232kts
14-Sep-18 11:09 33.464630 -118.547733 308 7982ft 232kts
14-Sep-18 11:10 33.506252 -118.607100 308 7963ft 232kts
14-Sep-18 11:11 33.540079 -118.655419 308 7951ft 232kts
14-Sep-18 11:12 33.588242 -118.724326 307 7936ft 231kts
14-Sep-18 11:13 33.622651 -118.773639 307 7935ft 231kts
14-Sep-18 11:14 33.663881 -118.832820 307 7939ft 231kts
14-Sep-18 11:15 33.711745 -118.901636 306 8012ft 229kts
14-Sep-18 11:16 33.745456 -118.950196 306 8012ft 227kts
14-Sep-18 11:17 33.785892 -119.008261 310 8010ft 227kts
14-Sep-18 11:18 33.848676 -119.022119 352 8013ft 236kts
14-Sep-18 11:19 33.914129 -119.028638 351 8013ft 236kts
14-Sep-18 11:20 33.979640 -119.035483 351 8013ft 236kts
14-Sep-18 11:21 34.045168 -119.042360 351 8013ft 236kts
14-Sep-18 11:22 34.108420 -119.050035 336 8007ft 225kts
14-Sep-18 11:23 34.138876 -119.106108 293 7992ft 177kts
14-Sep-18 11:24 34.159252 -119.155019 292 7991ft 156kts
14-Sep-18 11:25 34.178547 -119.201251 292 7987ft 153kts
14-Sep-18 11:26 34.196577 -119.244285 291 7985ft 139kts
14-Sep-18 11:27 34.214082 -119.286346 291 7987ft 147kts
14-Sep-18 11:28 34.235958 -119.338701 292 7985ft 191kts
14-Sep-18 11:29 34.260307 -119.396782 292 7555ft 185kts
14-Sep-18 11:30 34.282601 -119.450484 292 6744ft 176kts
14-Sep-18 11:31 34.316692 -119.497748 312 5951ft 200kts
14-Sep-18 11:32 34.343650 -119.553007 283 5156ft 189kts
14-Sep-18 11:33 34.359758 -119.610177 296 4641ft 174kts
14-Sep-18 11:34 34.375904 -119.661685 288 4335ft 155kts
14-Sep-18 11:35 34.391218 -119.709647 288 3786ft 157kts
14-Sep-18 11:36 34.406438 -119.757221 289 2580ft 134kts
14-Sep-18 11:37 34.420545 -119.791109 298 1293ft 107kts
14-Sep-18 11:38 34.428228 -119.821098 265 281ft 84kts
14-Sep-18 11:39 34.427720 -119.845280 257 14ft 25kts
14-Sep-18 11:40 34.428312 -119.845887 62 14ft 0kts
14-Sep-18 11:41 34.429121 -119.845665 55 14ft 9kts
14-Sep-18 11:42 34.429190 -119.845506 66 14ft 0kts
14-Sep-18 11:43 34.429190 -119.845506 66 14ft 0kts
14-Sep-18 11:44 34.429190 -119.845506 66 14ft 0kts
14-Sep-18 11:45 34.429190 -119.845506 66 14ft 0kts
14-Sep-18 11:46 34.429190 -119.845506 66 14ft 0kts
14-Sep-18 11:47 34.429190 -119.845506 66 14ft 0kts
14-Sep-18 11:48 34.429190 -119.845506 66 14ft 0kts
14-Sep-18 11:49 34.429190 -119.845506 66 14ft 0kts
14-Sep-18 11:50 34.429190 -119.845506 66 14ft 0kts
14-Sep-18 11:51 34.429190 -119.845506 66 14ft 0kts
14-Sep-18 11:52 34.429190 -119.845506 66 14ft 0kts
14-Sep-18 11:53 34.429190 -119.845506 66 14ft 0kts

Navigation Log

Ident Type
1. KSNA Airport
2. SXC Navaid
3. WEEZL Fix
4. VTU Navaid
5. KWANG Fix
6. KSBA Airport